sensor_id;sensor_type;location;lat;lon;timestamp;temperature;humidity
40291;DHT22;26000;48.304;13.626;2023-01-30T00:01:40;2.40;99.90
40291;DHT22;26000;48.304;13.626;2023-01-30T00:04:06;2.40;99.90
40291;DHT22;26000;48.304;13.626;2023-01-30T00:06:32;2.40;99.90
40291;DHT22;26000;48.304;13.626;2023-01-30T00:08:57;2.30;99.90
40291;DHT22;26000;48.304;13.626;2023-01-30T00:11:23;2.40;99.90
40291;DHT22;26000;48.304;13.626;2023-01-30T00:13:49;2.20;99.90
40291;DHT22;26000;48.304;13.626;2023-01-30T00:16:15;2.30;99.90
40291;DHT22;26000;48.304;13.626;2023-01-30T00:18:40;2.40;99.90
40291;DHT22;26000;48.304;13.626;2023-01-30T00:21:07;2.30;99.90
40291;DHT22;26000;48.304;13.626;2023-01-30T00:23:33;2.30;99.90
40291;DHT22;26000;48.304;13.626;2023-01-30T00:25:59;2.30;99.90
40291;DHT22;26000;48.304;13.626;2023-01-30T00:28:24;2.30;99.90
40291;DHT22;26000;48.304;13.626;2023-01-30T00:30:50;2.20;99.90
40291;DHT22;26000;48.304;13.626;2023-01-30T00:33:16;2.20;99.90
40291;DHT22;26000;48.304;13.626;2023-01-30T00:35:43;2.30;99.90
40291;DHT22;26000;48.304;13.626;2023-01-30T00:38:08;2.30;99.90
40291;DHT22;26000;48.304;13.626;2023-01-30T00:40:34;2.30;99.90
40291;DHT22;26000;48.304;13.626;2023-01-30T00:43:00;2.30;99.90
40291;DHT22;26000;48.304;13.626;2023-01-30T00:45:44;2.20;99.90
40291;DHT22;26000;48.304;13.626;2023-01-30T00:48:29;2.20;99.90
40291;DHT22;26000;48.304;13.626;2023-01-30T00:50:54;2.20;99.90
40291;DHT22;26000;48.304;13.626;2023-01-30T00:53:20;2.20;99.90
40291;DHT22;26000;48.304;13.626;2023-01-30T00:55:45;2.10;99.90
40291;DHT22;26000;48.304;13.626;2023-01-30T00:58:11;2.10;99.90
40291;DHT22;26000;48.304;13.626;2023-01-30T01:00:37;2.10;99.90
40291;DHT22;26000;48.304;13.626;2023-01-30T01:03:03;2.10;99.90
40291;DHT22;26000;48.304;13.626;2023-01-30T01:05:28;2.10;99.90
40291;DHT22;26000;48.304;13.626;2023-01-30T01:07:54;2.20;99.90
40291;DHT22;26000;48.304;13.626;2023-01-30T01:10:20;2.20;99.90
40291;DHT22;26000;48.304;13.626;2023-01-30T01:12:45;2.20;99.90
40291;DHT22;26000;48.304;13.626;2023-01-30T01:15:11;2.20;99.90
40291;DHT22;26000;48.304;13.626;2023-01-30T01:17:37;2.10;99.90
40291;DHT22;26000;48.304;13.626;2023-01-30T01:20:03;2.10;99.90
40291;DHT22;26000;48.304;13.626;2023-01-30T01:22:29;2.10;99.90
40291;DHT22;26000;48.304;13.626;2023-01-30T01:24:55;2.10;99.90
40291;DHT22;26000;48.304;13.626;2023-01-30T01:27:20;2.10;99.90
40291;DHT22;26000;48.304;13.626;2023-01-30T01:29:46;2.10;99.90
40291;DHT22;26000;48.304;13.626;2023-01-30T01:32:11;2.10;99.90
40291;DHT22;26000;48.304;13.626;2023-01-30T01:34:37;2.10;99.90
40291;DHT22;26000;48.304;13.626;2023-01-30T01:37:02;2.20;99.90
40291;DHT22;26000;48.304;13.626;2023-01-30T01:39:27;2.10;99.90
40291;DHT22;26000;48.304;13.626;2023-01-30T01:42:13;2.10;99.90
40291;DHT22;26000;48.304;13.626;2023-01-30T01:47:23;2.10;99.90
40291;DHT22;26000;48.304;13.626;2023-01-30T01:49:48;2.00;99.90
40291;DHT22;26000;48.304;13.626;2023-01-30T01:52:14;2.00;99.90
40291;DHT22;26000;48.304;13.626;2023-01-30T01:54:45;2.00;99.90
40291;DHT22;26000;48.304;13.626;2023-01-30T01:57:24;2.00;99.90
40291;DHT22;26000;48.304;13.626;2023-01-30T02:00:33;2.10;99.90
40291;DHT22;26000;48.304;13.626;2023-01-30T02:02:41;2.10;99.90
40291;DHT22;26000;48.304;13.626;2023-01-30T02:05:07;2.10;99.90
40291;DHT22;26000;48.304;13.626;2023-01-30T02:07:40;2.00;99.90
40291;DHT22;26000;48.304;13.626;2023-01-30T02:10:10;2.10;99.90
40291;DHT22;26000;48.304;13.626;2023-01-30T02:12:37;2.00;99.90
40291;DHT22;26000;48.304;13.626;2023-01-30T02:15:04;1.90;99.90
40291;DHT22;26000;48.304;13.626;2023-01-30T02:17:30;2.00;99.90
40291;DHT22;26000;48.304;13.626;2023-01-30T02:30:57;1.80;99.90
40291;DHT22;26000;48.304;13.626;2023-01-30T02:33:09;1.80;99.90
40291;DHT22;26000;48.304;13.626;2023-01-30T02:43:25;1.80;99.90
40291;DHT22;26000;48.304;13.626;2023-01-30T02:45:56;1.70;99.90
40291;DHT22;26000;48.304;13.626;2023-01-30T02:48:34;1.80;99.90
40291;DHT22;26000;48.304;13.626;2023-01-30T02:51:14;1.80;99.90
40291;DHT22;26000;48.304;13.626;2023-01-30T02:53:41;1.90;99.90
40291;DHT22;26000;48.304;13.626;2023-01-30T02:56:07;1.80;99.90
40291;DHT22;26000;48.304;13.626;2023-01-30T02:58:35;1.70;99.90
40291;DHT22;26000;48.304;13.626;2023-01-30T03:11:41;1.80;99.90
40291;DHT22;26000;48.304;13.626;2023-01-30T03:16:53;1.90;99.90
40291;DHT22;26000;48.304;13.626;2023-01-30T03:19:19;1.80;99.90
40291;DHT22;26000;48.304;13.626;2023-01-30T03:21:45;1.70;99.90
40291;DHT22;26000;48.304;13.626;2023-01-30T03:24:11;1.70;99.90
40291;DHT22;26000;48.304;13.626;2023-01-30T03:26:39;1.70;99.90
40291;DHT22;26000;48.304;13.626;2023-01-30T03:29:06;1.80;99.90
40291;DHT22;26000;48.304;13.626;2023-01-30T03:31:32;1.70;99.90
40291;DHT22;26000;48.304;13.626;2023-01-30T03:33:57;1.80;99.90
40291;DHT22;26000;48.304;13.626;2023-01-30T03:36:22;1.80;99.90
40291;DHT22;26000;48.304;13.626;2023-01-30T03:38:49;1.60;99.90
40291;DHT22;26000;48.304;13.626;2023-01-30T03:41:15;1.60;99.90
40291;DHT22;26000;48.304;13.626;2023-01-30T03:43:40;1.70;99.90
40291;DHT22;26000;48.304;13.626;2023-01-30T03:46:06;1.60;99.90
40291;DHT22;26000;48.304;13.626;2023-01-30T03:48:31;1.40;99.90
40291;DHT22;26000;48.304;13.626;2023-01-30T03:50:57;1.50;99.90
40291;DHT22;26000;48.304;13.626;2023-01-30T03:53:23;1.40;99.90
40291;DHT22;26000;48.304;13.626;2023-01-30T03:55:48;1.30;99.90
40291;DHT22;26000;48.304;13.626;2023-01-30T03:58:14;1.30;99.90
40291;DHT22;26000;48.304;13.626;2023-01-30T04:00:39;1.30;99.90
40291;DHT22;26000;48.304;13.626;2023-01-30T04:03:05;1.30;99.90
40291;DHT22;26000;48.304;13.626;2023-01-30T04:05:31;1.30;99.90
40291;DHT22;26000;48.304;13.626;2023-01-30T04:07:57;1.30;99.90
40291;DHT22;26000;48.304;13.626;2023-01-30T04:10:23;1.30;99.90
40291;DHT22;26000;48.304;13.626;2023-01-30T04:12:49;1.30;99.90
40291;DHT22;26000;48.304;13.626;2023-01-30T04:15:14;1.30;99.90
40291;DHT22;26000;48.304;13.626;2023-01-30T04:17:41;1.30;99.90
40291;DHT22;26000;48.304;13.626;2023-01-30T04:20:07;1.30;99.90
40291;DHT22;26000;48.304;13.626;2023-01-30T04:22:33;1.30;99.90
40291;DHT22;26000;48.304;13.626;2023-01-30T04:24:58;1.10;99.90
40291;DHT22;26000;48.304;13.626;2023-01-30T04:27:23;1.20;99.90
40291;DHT22;26000;48.304;13.626;2023-01-30T04:29:49;1.20;99.90
40291;DHT22;26000;48.304;13.626;2023-01-30T04:32:14;1.20;99.90
40291;DHT22;26000;48.304;13.626;2023-01-30T04:34:40;1.20;99.90
40291;DHT22;26000;48.304;13.626;2023-01-30T04:37:07;1.30;99.90
40291;DHT22;26000;48.304;13.626;2023-01-30T04:39:32;1.20;99.90
40291;DHT22;26000;48.304;13.626;2023-01-30T04:41:58;1.20;99.90
40291;DHT22;26000;48.304;13.626;2023-01-30T04:44:23;1.20;99.90
40291;DHT22;26000;48.304;13.626;2023-01-30T04:46:49;1.30;99.90
40291;DHT22;26000;48.304;13.626;2023-01-30T04:49:14;1.20;99.90
40291;DHT22;26000;48.304;13.626;2023-01-30T04:51:39;1.10;99.90
40291;DHT22;26000;48.304;13.626;2023-01-30T04:54:05;1.10;99.90
40291;DHT22;26000;48.304;13.626;2023-01-30T04:56:31;1.20;99.90
40291;DHT22;26000;48.304;13.626;2023-01-30T04:58:56;1.20;99.90
40291;DHT22;26000;48.304;13.626;2023-01-30T05:01:29;1.10;99.90
40291;DHT22;26000;48.304;13.626;2023-01-30T05:03:55;1.00;99.90
40291;DHT22;26000;48.304;13.626;2023-01-30T05:06:20;1.00;99.90
40291;DHT22;26000;48.304;13.626;2023-01-30T05:08:47;1.00;99.90
40291;DHT22;26000;48.304;13.626;2023-01-30T05:11:12;1.00;99.90
40291;DHT22;26000;48.304;13.626;2023-01-30T05:13:38;1.00;99.90
40291;DHT22;26000;48.304;13.626;2023-01-30T05:16:03;1.00;99.90
40291;DHT22;26000;48.304;13.626;2023-01-30T05:18:29;1.10;99.90
40291;DHT22;26000;48.304;13.626;2023-01-30T05:21:01;1.10;99.90
40291;DHT22;26000;48.304;13.626;2023-01-30T05:23:27;1.00;99.90
40291;DHT22;26000;48.304;13.626;2023-01-30T05:25:52;1.00;99.90
40291;DHT22;26000;48.304;13.626;2023-01-30T05:28:18;1.10;99.90
40291;DHT22;26000;48.304;13.626;2023-01-30T05:30:43;1.10;99.90
40291;DHT22;26000;48.304;13.626;2023-01-30T05:33:09;1.00;99.90
40291;DHT22;26000;48.304;13.626;2023-01-30T05:35:34;1.10;99.90
40291;DHT22;26000;48.304;13.626;2023-01-30T05:37:59;1.00;99.90
40291;DHT22;26000;48.304;13.626;2023-01-30T05:40:26;1.00;99.90
40291;DHT22;26000;48.304;13.626;2023-01-30T05:42:52;1.00;99.90
40291;DHT22;26000;48.304;13.626;2023-01-30T05:45:18;1.00;99.90
40291;DHT22;26000;48.304;13.626;2023-01-30T05:47:43;0.90;99.90
40291;DHT22;26000;48.304;13.626;2023-01-30T05:50:09;0.90;99.90
40291;DHT22;26000;48.304;13.626;2023-01-30T05:52:35;0.90;99.90
40291;DHT22;26000;48.304;13.626;2023-01-30T05:55:00;0.80;99.90
40291;DHT22;26000;48.304;13.626;2023-01-30T05:57:26;0.80;99.90
40291;DHT22;26000;48.304;13.626;2023-01-30T05:59:51;0.90;99.90
40291;DHT22;26000;48.304;13.626;2023-01-30T06:02:17;0.90;99.90
40291;DHT22;26000;48.304;13.626;2023-01-30T06:04:42;0.80;99.90
40291;DHT22;26000;48.304;13.626;2023-01-30T06:07:08;0.90;99.90
40291;DHT22;26000;48.304;13.626;2023-01-30T06:09:33;0.80;99.90
40291;DHT22;26000;48.304;13.626;2023-01-30T06:11:58;0.70;99.90
40291;DHT22;26000;48.304;13.626;2023-01-30T06:14:24;0.80;99.90
40291;DHT22;26000;48.304;13.626;2023-01-30T06:16:49;0.80;99.90
40291;DHT22;26000;48.304;13.626;2023-01-30T06:19:15;0.80;99.90
40291;DHT22;26000;48.304;13.626;2023-01-30T06:21:40;0.90;99.90
40291;DHT22;26000;48.304;13.626;2023-01-30T06:24:06;1.00;99.90
40291;DHT22;26000;48.304;13.626;2023-01-30T06:26:31;0.90;99.90
40291;DHT22;26000;48.304;13.626;2023-01-30T06:28:57;0.80;99.90
40291;DHT22;26000;48.304;13.626;2023-01-30T06:31:22;0.90;99.90
40291;DHT22;26000;48.304;13.626;2023-01-30T06:33:48;0.90;99.90
40291;DHT22;26000;48.304;13.626;2023-01-30T06:36:13;0.80;99.90
40291;DHT22;26000;48.304;13.626;2023-01-30T06:38:39;0.90;99.90
40291;DHT22;26000;48.304;13.626;2023-01-30T06:41:04;0.90;99.90
40291;DHT22;26000;48.304;13.626;2023-01-30T06:43:30;1.00;99.90
40291;DHT22;26000;48.304;13.626;2023-01-30T06:45:57;1.10;99.90
40291;DHT22;26000;48.304;13.626;2023-01-30T06:48:22;1.20;99.90
40291;DHT22;26000;48.304;13.626;2023-01-30T06:50:48;1.10;99.90
40291;DHT22;26000;48.304;13.626;2023-01-30T06:53:13;1.20;99.90
40291;DHT22;26000;48.304;13.626;2023-01-30T06:55:39;1.20;99.90
40291;DHT22;26000;48.304;13.626;2023-01-30T06:58:05;1.10;99.90
40291;DHT22;26000;48.304;13.626;2023-01-30T07:00:31;1.20;99.90
40291;DHT22;26000;48.304;13.626;2023-01-30T07:02:57;1.20;99.90
40291;DHT22;26000;48.304;13.626;2023-01-30T07:05:23;1.30;99.90
40291;DHT22;26000;48.304;13.626;2023-01-30T07:07:48;1.40;99.90
40291;DHT22;26000;48.304;13.626;2023-01-30T07:10:14;1.50;99.90
40291;DHT22;26000;48.304;13.626;2023-01-30T07:12:39;1.50;99.90
40291;DHT22;26000;48.304;13.626;2023-01-30T07:15:05;1.50;99.90
40291;DHT22;26000;48.304;13.626;2023-01-30T07:17:31;1.60;99.90
40291;DHT22;26000;48.304;13.626;2023-01-30T07:19:56;1.60;99.90
40291;DHT22;26000;48.304;13.626;2023-01-30T07:22:22;1.60;99.90
40291;DHT22;26000;48.304;13.626;2023-01-30T07:24:47;1.80;99.90
40291;DHT22;26000;48.304;13.626;2023-01-30T07:27:13;1.80;99.90
40291;DHT22;26000;48.304;13.626;2023-01-30T07:29:39;1.80;99.90
40291;DHT22;26000;48.304;13.626;2023-01-30T07:32:05;1.90;99.90
40291;DHT22;26000;48.304;13.626;2023-01-30T07:34:31;1.80;99.90
40291;DHT22;26000;48.304;13.626;2023-01-30T07:36:56;1.90;99.90
40291;DHT22;26000;48.304;13.626;2023-01-30T07:39:21;1.90;99.90
40291;DHT22;26000;48.304;13.626;2023-01-30T07:41:47;2.00;99.90
40291;DHT22;26000;48.304;13.626;2023-01-30T07:44:13;2.10;99.90
40291;DHT22;26000;48.304;13.626;2023-01-30T07:46:38;2.00;99.90
40291;DHT22;26000;48.304;13.626;2023-01-30T07:49:04;2.00;99.90
40291;DHT22;26000;48.304;13.626;2023-01-30T07:51:30;2.00;99.90
40291;DHT22;26000;48.304;13.626;2023-01-30T07:53:56;2.10;99.90
40291;DHT22;26000;48.304;13.626;2023-01-30T07:56:21;2.20;99.90
40291;DHT22;26000;48.304;13.626;2023-01-30T07:58:47;2.10;99.90
40291;DHT22;26000;48.304;13.626;2023-01-30T08:01:13;2.20;99.90
40291;DHT22;26000;48.304;13.626;2023-01-30T08:03:38;2.10;99.90
40291;DHT22;26000;48.304;13.626;2023-01-30T08:06:04;2.00;99.90
40291;DHT22;26000;48.304;13.626;2023-01-30T08:08:29;2.10;99.90
40291;DHT22;26000;48.304;13.626;2023-01-30T08:10:55;2.00;99.90
40291;DHT22;26000;48.304;13.626;2023-01-30T08:13:20;2.10;99.90
40291;DHT22;26000;48.304;13.626;2023-01-30T08:15:46;2.10;99.90
40291;DHT22;26000;48.304;13.626;2023-01-30T08:18:11;2.10;99.90
40291;DHT22;26000;48.304;13.626;2023-01-30T08:20:37;2.30;99.90
40291;DHT22;26000;48.304;13.626;2023-01-30T08:23:02;2.10;99.90
40291;DHT22;26000;48.304;13.626;2023-01-30T08:25:28;2.20;99.90
40291;DHT22;26000;48.304;13.626;2023-01-30T08:27:54;2.40;99.90
40291;DHT22;26000;48.304;13.626;2023-01-30T08:30:19;2.50;99.90
40291;DHT22;26000;48.304;13.626;2023-01-30T08:32:45;2.50;99.90
40291;DHT22;26000;48.304;13.626;2023-01-30T08:35:11;2.60;99.90
40291;DHT22;26000;48.304;13.626;2023-01-30T08:37:40;2.60;99.90
40291;DHT22;26000;48.304;13.626;2023-01-30T08:40:06;2.60;99.90
40291;DHT22;26000;48.304;13.626;2023-01-30T08:42:31;2.70;99.90
40291;DHT22;26000;48.304;13.626;2023-01-30T08:44:57;2.70;99.90
40291;DHT22;26000;48.304;13.626;2023-01-30T08:47:22;2.80;99.90
40291;DHT22;26000;48.304;13.626;2023-01-30T08:49:48;2.90;99.90
40291;DHT22;26000;48.304;13.626;2023-01-30T08:52:15;3.10;99.90
40291;DHT22;26000;48.304;13.626;2023-01-30T08:54:41;3.30;99.90
40291;DHT22;26000;48.304;13.626;2023-01-30T08:57:06;3.60;99.90
40291;DHT22;26000;48.304;13.626;2023-01-30T08:59:32;3.80;99.90
40291;DHT22;26000;48.304;13.626;2023-01-30T09:01:57;4.10;99.90
40291;DHT22;26000;48.304;13.626;2023-01-30T09:04:23;4.30;99.90
40291;DHT22;26000;48.304;13.626;2023-01-30T09:06:50;4.50;99.90
40291;DHT22;26000;48.304;13.626;2023-01-30T09:09:16;4.50;99.90
40291;DHT22;26000;48.304;13.626;2023-01-30T09:11:42;4.70;99.90
40291;DHT22;26000;48.304;13.626;2023-01-30T09:14:07;4.70;99.90
40291;DHT22;26000;48.304;13.626;2023-01-30T09:16:32;4.70;99.90
40291;DHT22;26000;48.304;13.626;2023-01-30T09:18:58;4.70;99.90
40291;DHT22;26000;48.304;13.626;2023-01-30T09:21:23;4.80;99.90
40291;DHT22;26000;48.304;13.626;2023-01-30T09:23:49;4.90;99.90
40291;DHT22;26000;48.304;13.626;2023-01-30T09:26:14;5.10;99.90
40291;DHT22;26000;48.304;13.626;2023-01-30T09:28:40;5.20;99.90
40291;DHT22;26000;48.304;13.626;2023-01-30T09:31:05;5.20;99.90
40291;DHT22;26000;48.304;13.626;2023-01-30T09:33:31;5.00;99.90
40291;DHT22;26000;48.304;13.626;2023-01-30T09:35:56;4.80;99.90
40291;DHT22;26000;48.304;13.626;2023-01-30T09:38:22;4.80;99.90
40291;DHT22;26000;48.304;13.626;2023-01-30T09:47:11;4.70;99.90
40291;DHT22;26000;48.304;13.626;2023-01-30T09:49:39;4.70;99.90
40291;DHT22;26000;48.304;13.626;2023-01-30T09:52:18;4.70;99.90
40291;DHT22;26000;48.304;13.626;2023-01-30T09:54:46;4.60;99.90
40291;DHT22;26000;48.304;13.626;2023-01-30T09:57:15;4.50;99.90
40291;DHT22;26000;48.304;13.626;2023-01-30T10:00:04;4.60;99.90
40291;DHT22;26000;48.304;13.626;2023-01-30T10:04:59;4.70;99.90
40291;DHT22;26000;48.304;13.626;2023-01-30T10:18:12;4.50;99.90
40291;DHT22;26000;48.304;13.626;2023-01-30T10:25:44;4.40;99.90
40291;DHT22;26000;48.304;13.626;2023-01-30T10:28:12;4.50;99.90
40291;DHT22;26000;48.304;13.626;2023-01-30T10:30:39;4.40;99.90
40291;DHT22;26000;48.304;13.626;2023-01-30T10:33:06;4.40;99.90
40291;DHT22;26000;48.304;13.626;2023-01-30T10:35:37;4.40;99.90
40291;DHT22;26000;48.304;13.626;2023-01-30T10:38:18;4.40;99.90
40291;DHT22;26000;48.304;13.626;2023-01-30T10:40:47;4.30;99.90
40291;DHT22;26000;48.304;13.626;2023-01-30T10:43:28;4.40;99.90
40291;DHT22;26000;48.304;13.626;2023-01-30T10:53:55;4.50;99.90
40291;DHT22;26000;48.304;13.626;2023-01-30T10:58:58;4.80;99.90
40291;DHT22;26000;48.304;13.626;2023-01-30T11:01:45;4.90;99.90
40291;DHT22;26000;48.304;13.626;2023-01-30T11:06:49;5.30;99.90
40291;DHT22;26000;48.304;13.626;2023-01-30T11:09:15;5.50;99.90
40291;DHT22;26000;48.304;13.626;2023-01-30T11:11:51;5.60;99.90
40291;DHT22;26000;48.304;13.626;2023-01-30T11:14:17;5.70;99.90
40291;DHT22;26000;48.304;13.626;2023-01-30T11:19:11;5.80;99.90
40291;DHT22;26000;48.304;13.626;2023-01-30T11:21:36;5.80;99.90
40291;DHT22;26000;48.304;13.626;2023-01-30T11:24:20;5.90;99.90
40291;DHT22;26000;48.304;13.626;2023-01-30T11:26:46;5.80;99.90
40291;DHT22;26000;48.304;13.626;2023-01-30T11:29:21;5.70;99.90
40291;DHT22;26000;48.304;13.626;2023-01-30T11:31:49;5.60;99.90
40291;DHT22;26000;48.304;13.626;2023-01-30T11:34:15;5.50;99.90
40291;DHT22;26000;48.304;13.626;2023-01-30T11:36:41;5.50;99.90
40291;DHT22;26000;48.304;13.626;2023-01-30T11:41:41;5.20;99.90
40291;DHT22;26000;48.304;13.626;2023-01-30T11:44:09;5.10;99.90
40291;DHT22;26000;48.304;13.626;2023-01-30T11:46:36;5.10;99.90
40291;DHT22;26000;48.304;13.626;2023-01-30T11:49:12;5.10;99.90
40291;DHT22;26000;48.304;13.626;2023-01-30T11:51:38;5.00;99.90
40291;DHT22;26000;48.304;13.626;2023-01-30T11:54:07;4.90;99.90
40291;DHT22;26000;48.304;13.626;2023-01-30T11:56:38;4.90;99.90
40291;DHT22;26000;48.304;13.626;2023-01-30T11:59:06;5.00;99.90
40291;DHT22;26000;48.304;13.626;2023-01-30T12:01:39;4.90;99.90
40291;DHT22;26000;48.304;13.626;2023-01-30T12:04:05;4.90;99.90
40291;DHT22;26000;48.304;13.626;2023-01-30T12:06:33;4.90;99.90
40291;DHT22;26000;48.304;13.626;2023-01-30T12:08:59;4.90;99.90
40291;DHT22;26000;48.304;13.626;2023-01-30T12:11:29;4.90;99.90
40291;DHT22;26000;48.304;13.626;2023-01-30T12:14:10;4.90;99.90
40291;DHT22;26000;48.304;13.626;2023-01-30T12:16:43;4.90;99.90
40291;DHT22;26000;48.304;13.626;2023-01-30T12:19:12;4.90;99.90
40291;DHT22;26000;48.304;13.626;2023-01-30T12:21:44;4.80;99.90
40291;DHT22;26000;48.304;13.626;2023-01-30T12:27:02;4.90;99.90
40291;DHT22;26000;48.304;13.626;2023-01-30T12:29:35;4.80;99.90
40291;DHT22;26000;48.304;13.626;2023-01-30T12:34:33;4.80;99.90
40291;DHT22;26000;48.304;13.626;2023-01-30T12:37:10;4.70;99.90
40291;DHT22;26000;48.304;13.626;2023-01-30T12:39:50;4.90;99.90
40291;DHT22;26000;48.304;13.626;2023-01-30T12:47:27;4.70;99.90
40291;DHT22;26000;48.304;13.626;2023-01-30T12:50:11;4.80;99.90
40291;DHT22;26000;48.304;13.626;2023-01-30T12:55:17;4.80;99.90
40291;DHT22;26000;48.304;13.626;2023-01-30T12:57:58;4.80;99.90
40291;DHT22;26000;48.304;13.626;2023-01-30T13:05:46;4.70;99.90
40291;DHT22;26000;48.304;13.626;2023-01-30T13:08:40;4.70;99.90
40291;DHT22;26000;48.304;13.626;2023-01-30T13:11:22;4.60;99.90
40291;DHT22;26000;48.304;13.626;2023-01-30T13:19:10;4.30;99.90
40291;DHT22;26000;48.304;13.626;2023-01-30T13:27:08;4.10;99.90
40291;DHT22;26000;48.304;13.626;2023-01-30T13:29:37;4.10;99.90
40291;DHT22;26000;48.304;13.626;2023-01-30T13:32:10;4.00;99.90
40291;DHT22;26000;48.304;13.626;2023-01-30T13:34:40;4.00;99.90
40291;DHT22;26000;48.304;13.626;2023-01-30T13:37:09;4.00;99.90
40291;DHT22;26000;48.304;13.626;2023-01-30T13:39:46;4.00;99.90
40291;DHT22;26000;48.304;13.626;2023-01-30T13:45:04;4.00;99.90
40291;DHT22;26000;48.304;13.626;2023-01-30T13:50:14;4.00;99.90
40291;DHT22;26000;48.304;13.626;2023-01-30T13:52:44;4.00;99.90
40291;DHT22;26000;48.304;13.626;2023-01-30T13:57:47;3.90;99.90
40291;DHT22;26000;48.304;13.626;2023-01-30T14:03:13;3.90;99.90
40291;DHT22;26000;48.304;13.626;2023-01-30T14:08:22;3.80;99.90
40291;DHT22;26000;48.304;13.626;2023-01-30T14:10:50;3.80;99.90
40291;DHT22;26000;48.304;13.626;2023-01-30T14:13:16;3.70;99.90
40291;DHT22;26000;48.304;13.626;2023-01-30T14:15:58;3.70;99.90
40291;DHT22;26000;48.304;13.626;2023-01-30T14:18:28;3.70;99.90
40291;DHT22;26000;48.304;13.626;2023-01-30T14:21:11;3.70;99.90
40291;DHT22;26000;48.304;13.626;2023-01-30T14:23:37;3.70;99.90
40291;DHT22;26000;48.304;13.626;2023-01-30T14:26:03;3.60;99.90
40291;DHT22;26000;48.304;13.626;2023-01-30T14:35:46;3.60;99.90
40291;DHT22;26000;48.304;13.626;2023-01-30T14:40:38;3.60;99.90
40291;DHT22;26000;48.304;13.626;2023-01-30T14:50:50;3.70;99.90
40291;DHT22;26000;48.304;13.626;2023-01-30T14:53:33;3.70;99.90
40291;DHT22;26000;48.304;13.626;2023-01-30T14:56:02;3.70;99.90
40291;DHT22;26000;48.304;13.626;2023-01-30T14:58:28;3.60;99.90
40291;DHT22;26000;48.304;13.626;2023-01-30T15:00:57;3.80;99.90
40291;DHT22;26000;48.304;13.626;2023-01-30T15:03:23;3.70;99.90
40291;DHT22;26000;48.304;13.626;2023-01-30T15:05:49;3.80;99.90
40291;DHT22;26000;48.304;13.626;2023-01-30T15:08:18;3.80;99.90
40291;DHT22;26000;48.304;13.626;2023-01-30T15:26:45;4.00;99.90
40291;DHT22;26000;48.304;13.626;2023-01-30T15:31:59;4.00;99.90
40291;DHT22;26000;48.304;13.626;2023-01-30T15:34:31;4.00;99.90
40291;DHT22;26000;48.304;13.626;2023-01-30T15:36:58;4.00;99.90
40291;DHT22;26000;48.304;13.626;2023-01-30T15:39:25;4.00;99.90
40291;DHT22;26000;48.304;13.626;2023-01-30T15:41:51;3.90;99.90
40291;DHT22;26000;48.304;13.626;2023-01-30T15:51:42;3.90;99.90
40291;DHT22;26000;48.304;13.626;2023-01-30T15:54:08;3.90;99.90
40291;DHT22;26000;48.304;13.626;2023-01-30T15:56:34;4.00;99.90
40291;DHT22;26000;48.304;13.626;2023-01-30T15:59:00;4.00;99.90
40291;DHT22;26000;48.304;13.626;2023-01-30T16:01:26;4.00;99.90
40291;DHT22;26000;48.304;13.626;2023-01-30T16:03:52;4.00;99.90
40291;DHT22;26000;48.304;13.626;2023-01-30T16:06:34;4.20;99.90
40291;DHT22;26000;48.304;13.626;2023-01-30T16:09:01;4.10;99.90
40291;DHT22;26000;48.304;13.626;2023-01-30T16:11:32;4.10;99.90
40291;DHT22;26000;48.304;13.626;2023-01-30T16:13:57;4.20;99.90
40291;DHT22;26000;48.304;13.626;2023-01-30T16:16:23;4.20;99.90
40291;DHT22;26000;48.304;13.626;2023-01-30T16:18:50;4.20;99.90
40291;DHT22;26000;48.304;13.626;2023-01-30T16:21:18;4.20;99.90
40291;DHT22;26000;48.304;13.626;2023-01-30T16:23:55;4.10;99.90
40291;DHT22;26000;48.304;13.626;2023-01-30T16:26:23;4.10;99.90
40291;DHT22;26000;48.304;13.626;2023-01-30T16:28:49;4.00;99.90
40291;DHT22;26000;48.304;13.626;2023-01-30T16:31:15;4.10;99.90
40291;DHT22;26000;48.304;13.626;2023-01-30T16:33:41;4.20;99.90
40291;DHT22;26000;48.304;13.626;2023-01-30T16:38:45;4.10;99.90
40291;DHT22;26000;48.304;13.626;2023-01-30T16:44:17;4.20;99.90
40291;DHT22;26000;48.304;13.626;2023-01-30T16:47:02;4.10;99.90
40291;DHT22;26000;48.304;13.626;2023-01-30T16:54:44;4.20;99.90
40291;DHT22;26000;48.304;13.626;2023-01-30T16:57:31;4.20;99.90
40291;DHT22;26000;48.304;13.626;2023-01-30T17:00:04;4.20;99.90
40291;DHT22;26000;48.304;13.626;2023-01-30T17:02:35;4.20;99.90
40291;DHT22;26000;48.304;13.626;2023-01-30T17:05:09;4.20;99.90
40291;DHT22;26000;48.304;13.626;2023-01-30T17:07:37;4.20;99.90
40291;DHT22;26000;48.304;13.626;2023-01-30T17:10:03;4.20;99.90
40291;DHT22;26000;48.304;13.626;2023-01-30T17:17:38;4.30;99.90
40291;DHT22;26000;48.304;13.626;2023-01-30T17:20:04;4.20;99.90
40291;DHT22;26000;48.304;13.626;2023-01-30T17:22:30;4.20;99.90
40291;DHT22;26000;48.304;13.626;2023-01-30T17:25:03;4.10;99.90
40291;DHT22;26000;48.304;13.626;2023-01-30T17:27:30;4.20;99.90
40291;DHT22;26000;48.304;13.626;2023-01-30T17:29:56;4.10;99.90
40291;DHT22;26000;48.304;13.626;2023-01-30T17:32:21;4.20;99.90
40291;DHT22;26000;48.304;13.626;2023-01-30T17:34:47;4.20;99.90
40291;DHT22;26000;48.304;13.626;2023-01-30T17:37:13;4.20;99.90
40291;DHT22;26000;48.304;13.626;2023-01-30T17:39:39;4.20;99.90
40291;DHT22;26000;48.304;13.626;2023-01-30T17:42:07;4.20;99.90
40291;DHT22;26000;48.304;13.626;2023-01-30T17:44:33;4.20;99.90
40291;DHT22;26000;48.304;13.626;2023-01-30T17:46:58;4.20;99.90
40291;DHT22;26000;48.304;13.626;2023-01-30T17:49:24;4.20;99.90
40291;DHT22;26000;48.304;13.626;2023-01-30T17:51:50;4.20;99.90
40291;DHT22;26000;48.304;13.626;2023-01-30T17:54:16;4.10;99.90
40291;DHT22;26000;48.304;13.626;2023-01-30T17:56:43;4.20;99.90
40291;DHT22;26000;48.304;13.626;2023-01-30T17:59:18;4.10;99.90
40291;DHT22;26000;48.304;13.626;2023-01-30T18:01:45;4.10;99.90
40291;DHT22;26000;48.304;13.626;2023-01-30T18:04:11;4.10;99.90
40291;DHT22;26000;48.304;13.626;2023-01-30T18:06:37;4.10;99.90
40291;DHT22;26000;48.304;13.626;2023-01-30T18:09:03;4.10;99.90
40291;DHT22;26000;48.304;13.626;2023-01-30T18:11:29;4.20;99.90
40291;DHT22;26000;48.304;13.626;2023-01-30T18:13:54;4.10;99.90
40291;DHT22;26000;48.304;13.626;2023-01-30T18:16:22;4.20;99.90
40291;DHT22;26000;48.304;13.626;2023-01-30T18:18:48;4.20;99.90
40291;DHT22;26000;48.304;13.626;2023-01-30T18:21:14;4.30;99.90
40291;DHT22;26000;48.304;13.626;2023-01-30T18:23:39;4.20;99.90
40291;DHT22;26000;48.304;13.626;2023-01-30T18:26:05;4.10;99.90
40291;DHT22;26000;48.304;13.626;2023-01-30T18:28:30;4.20;99.90
40291;DHT22;26000;48.304;13.626;2023-01-30T18:30:56;4.10;99.90
40291;DHT22;26000;48.304;13.626;2023-01-30T18:33:21;4.20;99.90